sensor_id;sensor_type;location;lat;lon;timestamp;temperature;humidity
19781;DHT22;10050;55.492;13.506;2023-07-31T00:01:02;15.70;99.90
19781;DHT22;10050;55.492;13.506;2023-07-31T00:03:27;15.70;99.90
19781;DHT22;10050;55.492;13.506;2023-07-31T00:05:53;15.70;99.90
19781;DHT22;10050;55.492;13.506;2023-07-31T00:08:18;15.60;99.90
19781;DHT22;10050;55.492;13.506;2023-07-31T00:10:44;15.60;99.90
19781;DHT22;10050;55.492;13.506;2023-07-31T00:13:10;15.60;99.90
19781;DHT22;10050;55.492;13.506;2023-07-31T00:15:35;15.60;99.90
19781;DHT22;10050;55.492;13.506;2023-07-31T00:18:07;15.60;99.90
19781;DHT22;10050;55.492;13.506;2023-07-31T00:20:32;15.50;99.90
19781;DHT22;10050;55.492;13.506;2023-07-31T00:23:21;15.50;99.90
19781;DHT22;10050;55.492;13.506;2023-07-31T00:25:49;15.50;99.90
19781;DHT22;10050;55.492;13.506;2023-07-31T00:28:14;15.40;99.90
19781;DHT22;10050;55.492;13.506;2023-07-31T00:30:40;15.40;99.90
19781;DHT22;10050;55.492;13.506;2023-07-31T00:33:06;15.40;99.90
19781;DHT22;10050;55.492;13.506;2023-07-31T00:35:31;15.40;99.90
19781;DHT22;10050;55.492;13.506;2023-07-31T00:37:58;15.40;99.90
19781;DHT22;10050;55.492;13.506;2023-07-31T00:40:23;15.40;99.90
19781;DHT22;10050;55.492;13.506;2023-07-31T00:42:49;15.40;99.90
19781;DHT22;10050;55.492;13.506;2023-07-31T00:45:15;15.40;99.90
19781;DHT22;10050;55.492;13.506;2023-07-31T00:47:40;15.40;99.90
19781;DHT22;10050;55.492;13.506;2023-07-31T00:50:07;15.40;99.90
19781;DHT22;10050;55.492;13.506;2023-07-31T00:52:33;15.40;99.90
19781;DHT22;10050;55.492;13.506;2023-07-31T00:54:59;15.40;99.90
19781;DHT22;10050;55.492;13.506;2023-07-31T00:57:25;15.40;99.90
19781;DHT22;10050;55.492;13.506;2023-07-31T00:59:50;15.40;99.90
19781;DHT22;10050;55.492;13.506;2023-07-31T01:02:16;15.40;99.90
19781;DHT22;10050;55.492;13.506;2023-07-31T01:04:43;15.30;99.90
19781;DHT22;10050;55.492;13.506;2023-07-31T01:07:38;15.30;99.90
19781;DHT22;10050;55.492;13.506;2023-07-31T01:10:14;15.20;99.90
19781;DHT22;10050;55.492;13.506;2023-07-31T01:12:42;15.20;99.90
19781;DHT22;10050;55.492;13.506;2023-07-31T01:15:09;15.20;99.90
19781;DHT22;10050;55.492;13.506;2023-07-31T01:17:39;15.20;99.90
19781;DHT22;10050;55.492;13.506;2023-07-31T01:20:15;15.20;99.90
19781;DHT22;10050;55.492;13.506;2023-07-31T01:28:20;15.20;99.90
19781;DHT22;10050;55.492;13.506;2023-07-31T01:30:48;15.20;99.90
19781;DHT22;10050;55.492;13.506;2023-07-31T01:33:16;15.10;99.90
19781;DHT22;10050;55.492;13.506;2023-07-31T01:35:44;15.10;99.90
19781;DHT22;10050;55.492;13.506;2023-07-31T01:38:10;15.10;99.90
19781;DHT22;10050;55.492;13.506;2023-07-31T01:40:36;15.10;99.90
19781;DHT22;10050;55.492;13.506;2023-07-31T01:43:02;15.10;99.90
19781;DHT22;10050;55.492;13.506;2023-07-31T01:45:27;15.10;99.90
19781;DHT22;10050;55.492;13.506;2023-07-31T01:47:53;15.10;99.90
19781;DHT22;10050;55.492;13.506;2023-07-31T01:50:18;15.00;99.90
19781;DHT22;10050;55.492;13.506;2023-07-31T01:52:44;15.00;99.90
19781;DHT22;10050;55.492;13.506;2023-07-31T01:55:10;15.00;99.90
19781;DHT22;10050;55.492;13.506;2023-07-31T01:57:37;14.90;99.90
19781;DHT22;10050;55.492;13.506;2023-07-31T02:00:03;14.90;99.90
19781;DHT22;10050;55.492;13.506;2023-07-31T02:02:28;14.90;99.90
19781;DHT22;10050;55.492;13.506;2023-07-31T02:04:54;14.90;99.90
19781;DHT22;10050;55.492;13.506;2023-07-31T02:07:20;14.90;99.90
19781;DHT22;10050;55.492;13.506;2023-07-31T02:09:45;14.90;99.90
19781;DHT22;10050;55.492;13.506;2023-07-31T02:12:13;14.90;99.90
19781;DHT22;10050;55.492;13.506;2023-07-31T02:14:40;14.80;99.90
19781;DHT22;10050;55.492;13.506;2023-07-31T02:17:06;14.80;99.90
19781;DHT22;10050;55.492;13.506;2023-07-31T02:19:32;14.80;99.90
19781;DHT22;10050;55.492;13.506;2023-07-31T02:21:57;14.80;99.90
19781;DHT22;10050;55.492;13.506;2023-07-31T02:24:24;14.80;99.90
19781;DHT22;10050;55.492;13.506;2023-07-31T02:26:49;14.70;99.90
19781;DHT22;10050;55.492;13.506;2023-07-31T02:29:15;14.70;99.90
19781;DHT22;10050;55.492;13.506;2023-07-31T02:31:40;14.70;99.90
19781;DHT22;10050;55.492;13.506;2023-07-31T02:34:06;14.70;99.90
19781;DHT22;10050;55.492;13.506;2023-07-31T02:36:31;14.70;99.90
19781;DHT22;10050;55.492;13.506;2023-07-31T02:38:57;14.70;99.90
19781;DHT22;10050;55.492;13.506;2023-07-31T02:41:23;14.60;99.90
19781;DHT22;10050;55.492;13.506;2023-07-31T02:43:48;14.60;99.90
19781;DHT22;10050;55.492;13.506;2023-07-31T02:46:14;14.70;99.90
19781;DHT22;10050;55.492;13.506;2023-07-31T02:48:39;14.60;99.90
19781;DHT22;10050;55.492;13.506;2023-07-31T02:51:05;14.70;99.90
19781;DHT22;10050;55.492;13.506;2023-07-31T02:53:31;14.60;99.90
19781;DHT22;10050;55.492;13.506;2023-07-31T02:55:56;14.60;99.90
19781;DHT22;10050;55.492;13.506;2023-07-31T02:58:22;14.60;99.90
19781;DHT22;10050;55.492;13.506;2023-07-31T03:00:47;14.60;99.90
19781;DHT22;10050;55.492;13.506;2023-07-31T03:03:13;14.50;99.90
19781;DHT22;10050;55.492;13.506;2023-07-31T03:05:38;14.50;99.90
19781;DHT22;10050;55.492;13.506;2023-07-31T03:08:04;14.50;99.90
19781;DHT22;10050;55.492;13.506;2023-07-31T03:10:30;14.50;99.90
19781;DHT22;10050;55.492;13.506;2023-07-31T03:12:55;14.50;99.90
19781;DHT22;10050;55.492;13.506;2023-07-31T03:15:21;14.50;99.90
19781;DHT22;10050;55.492;13.506;2023-07-31T03:17:46;14.50;99.90
19781;DHT22;10050;55.492;13.506;2023-07-31T03:20:12;14.60;99.90
19781;DHT22;10050;55.492;13.506;2023-07-31T03:22:38;14.60;99.90
19781;DHT22;10050;55.492;13.506;2023-07-31T03:25:04;14.60;99.90
19781;DHT22;10050;55.492;13.506;2023-07-31T03:27:29;14.60;99.90
19781;DHT22;10050;55.492;13.506;2023-07-31T03:29:55;14.60;99.90
19781;DHT22;10050;55.492;13.506;2023-07-31T03:32:21;14.50;99.90
19781;DHT22;10050;55.492;13.506;2023-07-31T03:34:46;14.50;99.90
19781;DHT22;10050;55.492;13.506;2023-07-31T03:37:12;14.50;99.90
19781;DHT22;10050;55.492;13.506;2023-07-31T03:39:38;14.50;99.90
19781;DHT22;10050;55.492;13.506;2023-07-31T03:42:04;14.50;99.90
19781;DHT22;10050;55.492;13.506;2023-07-31T03:44:29;14.50;99.90
19781;DHT22;10050;55.492;13.506;2023-07-31T03:46:55;14.40;99.90
19781;DHT22;10050;55.492;13.506;2023-07-31T03:49:20;14.40;99.90
19781;DHT22;10050;55.492;13.506;2023-07-31T03:51:46;14.40;99.90
19781;DHT22;10050;55.492;13.506;2023-07-31T03:54:12;14.40;99.90
19781;DHT22;10050;55.492;13.506;2023-07-31T03:56:38;14.40;99.90
19781;DHT22;10050;55.492;13.506;2023-07-31T03:59:04;14.40;99.90
19781;DHT22;10050;55.492;13.506;2023-07-31T04:01:30;14.40;99.90
19781;DHT22;10050;55.492;13.506;2023-07-31T04:03:55;14.40;99.90
19781;DHT22;10050;55.492;13.506;2023-07-31T04:06:21;14.40;99.90
19781;DHT22;10050;55.492;13.506;2023-07-31T04:08:47;14.40;99.90
19781;DHT22;10050;55.492;13.506;2023-07-31T04:11:12;14.40;99.90
19781;DHT22;10050;55.492;13.506;2023-07-31T04:13:39;14.40;99.90
19781;DHT22;10050;55.492;13.506;2023-07-31T04:16:04;14.50;99.90
19781;DHT22;10050;55.492;13.506;2023-07-31T04:18:30;14.50;99.90
19781;DHT22;10050;55.492;13.506;2023-07-31T04:20:57;14.50;99.90
19781;DHT22;10050;55.492;13.506;2023-07-31T04:23:26;14.50;99.90
19781;DHT22;10050;55.492;13.506;2023-07-31T04:25:52;14.60;99.90
19781;DHT22;10050;55.492;13.506;2023-07-31T04:28:17;14.70;99.90
19781;DHT22;10050;55.492;13.506;2023-07-31T04:30:43;14.80;99.90
19781;DHT22;10050;55.492;13.506;2023-07-31T04:33:08;14.90;99.90
19781;DHT22;10050;55.492;13.506;2023-07-31T04:35:34;15.00;99.90
19781;DHT22;10050;55.492;13.506;2023-07-31T04:38:00;15.10;99.90
19781;DHT22;10050;55.492;13.506;2023-07-31T04:40:25;15.20;99.90
19781;DHT22;10050;55.492;13.506;2023-07-31T04:42:51;15.40;99.90
19781;DHT22;10050;55.492;13.506;2023-07-31T04:45:17;15.40;99.90
19781;DHT22;10050;55.492;13.506;2023-07-31T04:47:42;15.50;99.90
19781;DHT22;10050;55.492;13.506;2023-07-31T04:50:08;15.60;99.90
19781;DHT22;10050;55.492;13.506;2023-07-31T04:52:34;15.70;99.90
19781;DHT22;10050;55.492;13.506;2023-07-31T04:55:00;15.70;99.90
19781;DHT22;10050;55.492;13.506;2023-07-31T04:57:25;15.80;99.90
19781;DHT22;10050;55.492;13.506;2023-07-31T04:59:51;15.80;99.90
19781;DHT22;10050;55.492;13.506;2023-07-31T05:02:16;15.80;99.90
19781;DHT22;10050;55.492;13.506;2023-07-31T05:04:42;15.80;99.90
19781;DHT22;10050;55.492;13.506;2023-07-31T05:07:08;15.80;99.90
19781;DHT22;10050;55.492;13.506;2023-07-31T05:09:33;15.80;99.90
19781;DHT22;10050;55.492;13.506;2023-07-31T05:11:59;15.90;99.90
19781;DHT22;10050;55.492;13.506;2023-07-31T05:14:26;15.80;99.90
19781;DHT22;10050;55.492;13.506;2023-07-31T05:16:51;15.90;99.90
19781;DHT22;10050;55.492;13.506;2023-07-31T05:19:17;15.90;99.90
19781;DHT22;10050;55.492;13.506;2023-07-31T05:21:43;16.00;99.90
19781;DHT22;10050;55.492;13.506;2023-07-31T05:24:09;16.10;99.90
19781;DHT22;10050;55.492;13.506;2023-07-31T05:26:35;16.10;99.90
19781;DHT22;10050;55.492;13.506;2023-07-31T05:29:01;16.50;99.90
19781;DHT22;10050;55.492;13.506;2023-07-31T05:31:26;16.60;99.90
19781;DHT22;10050;55.492;13.506;2023-07-31T05:33:52;16.70;99.90
19781;DHT22;10050;55.492;13.506;2023-07-31T05:36:18;16.80;99.90
19781;DHT22;10050;55.492;13.506;2023-07-31T05:38:43;17.00;99.90
19781;DHT22;10050;55.492;13.506;2023-07-31T05:41:12;17.10;99.90
19781;DHT22;10050;55.492;13.506;2023-07-31T05:43:38;17.30;99.90
19781;DHT22;10050;55.492;13.506;2023-07-31T05:46:04;17.50;99.90
19781;DHT22;10050;55.492;13.506;2023-07-31T05:48:29;17.60;99.90
19781;DHT22;10050;55.492;13.506;2023-07-31T05:50:55;17.60;99.90
19781;DHT22;10050;55.492;13.506;2023-07-31T05:53:20;17.50;99.90
19781;DHT22;10050;55.492;13.506;2023-07-31T05:55:46;17.30;99.90
19781;DHT22;10050;55.492;13.506;2023-07-31T05:58:12;17.30;99.90
19781;DHT22;10050;55.492;13.506;2023-07-31T06:00:37;17.30;99.90
19781;DHT22;10050;55.492;13.506;2023-07-31T06:03:03;17.20;99.90
19781;DHT22;10050;55.492;13.506;2023-07-31T06:05:29;17.10;99.90
19781;DHT22;10050;55.492;13.506;2023-07-31T06:07:58;16.90;99.90
19781;DHT22;10050;55.492;13.506;2023-07-31T06:10:24;16.80;99.90
19781;DHT22;10050;55.492;13.506;2023-07-31T06:12:50;16.80;99.90
19781;DHT22;10050;55.492;13.506;2023-07-31T06:15:15;16.80;99.90
19781;DHT22;10050;55.492;13.506;2023-07-31T06:17:41;17.20;99.90
19781;DHT22;10050;55.492;13.506;2023-07-31T06:20:08;17.80;99.90
19781;DHT22;10050;55.492;13.506;2023-07-31T06:22:33;18.40;99.90
19781;DHT22;10050;55.492;13.506;2023-07-31T06:24:59;19.20;99.90
19781;DHT22;10050;55.492;13.506;2023-07-31T06:27:25;19.70;99.90
19781;DHT22;10050;55.492;13.506;2023-07-31T06:29:51;20.10;99.90
19781;DHT22;10050;55.492;13.506;2023-07-31T06:32:16;19.80;99.90
19781;DHT22;10050;55.492;13.506;2023-07-31T06:34:42;19.30;99.90
19781;DHT22;10050;55.492;13.506;2023-07-31T06:37:08;18.70;99.90
19781;DHT22;10050;55.492;13.506;2023-07-31T06:39:33;18.20;99.90
19781;DHT22;10050;55.492;13.506;2023-07-31T06:41:59;17.80;99.90
19781;DHT22;10050;55.492;13.506;2023-07-31T06:44:24;17.70;99.90
19781;DHT22;10050;55.492;13.506;2023-07-31T06:46:50;17.70;99.90
19781;DHT22;10050;55.492;13.506;2023-07-31T06:49:16;17.60;99.90
19781;DHT22;10050;55.492;13.506;2023-07-31T06:51:42;17.80;99.90
19781;DHT22;10050;55.492;13.506;2023-07-31T06:54:08;18.20;99.90
19781;DHT22;10050;55.492;13.506;2023-07-31T06:56:34;18.30;99.90
19781;DHT22;10050;55.492;13.506;2023-07-31T06:58:59;18.00;99.90
19781;DHT22;10050;55.492;13.506;2023-07-31T07:01:25;17.70;99.90
19781;DHT22;10050;55.492;13.506;2023-07-31T07:03:51;17.50;99.90
19781;DHT22;10050;55.492;13.506;2023-07-31T07:06:21;18.00;99.90
19781;DHT22;10050;55.492;13.506;2023-07-31T07:08:48;18.80;99.90
19781;DHT22;10050;55.492;13.506;2023-07-31T07:11:16;19.30;99.90
19781;DHT22;10050;55.492;13.506;2023-07-31T07:13:42;19.10;99.90
19781;DHT22;10050;55.492;13.506;2023-07-31T07:16:08;19.00;99.90
19781;DHT22;10050;55.492;13.506;2023-07-31T07:18:33;19.00;99.90
19781;DHT22;10050;55.492;13.506;2023-07-31T07:20:59;19.50;99.90
19781;DHT22;10050;55.492;13.506;2023-07-31T07:23:27;20.00;99.90
19781;DHT22;10050;55.492;13.506;2023-07-31T07:25:53;19.70;99.90
19781;DHT22;10050;55.492;13.506;2023-07-31T07:28:18;19.20;99.90
19781;DHT22;10050;55.492;13.506;2023-07-31T07:30:44;18.90;99.90
19781;DHT22;10050;55.492;13.506;2023-07-31T07:33:09;18.90;99.90
19781;DHT22;10050;55.492;13.506;2023-07-31T07:35:35;18.80;99.90
19781;DHT22;10050;55.492;13.506;2023-07-31T07:38:02;19.20;99.90
19781;DHT22;10050;55.492;13.506;2023-07-31T07:40:28;19.60;99.90
19781;DHT22;10050;55.492;13.506;2023-07-31T07:42:53;19.50;99.90
19781;DHT22;10050;55.492;13.506;2023-07-31T07:45:19;19.30;99.90
19781;DHT22;10050;55.492;13.506;2023-07-31T07:47:44;19.00;99.90
19781;DHT22;10050;55.492;13.506;2023-07-31T07:50:10;18.80;99.90
19781;DHT22;10050;55.492;13.506;2023-07-31T07:52:36;18.90;99.90
19781;DHT22;10050;55.492;13.506;2023-07-31T07:55:01;18.80;99.90
19781;DHT22;10050;55.492;13.506;2023-07-31T07:57:28;18.80;99.90
19781;DHT22;10050;55.492;13.506;2023-07-31T07:59:54;18.70;99.90
19781;DHT22;10050;55.492;13.506;2023-07-31T08:02:20;18.70;99.90
19781;DHT22;10050;55.492;13.506;2023-07-31T08:04:45;18.80;99.90
19781;DHT22;10050;55.492;13.506;2023-07-31T08:07:11;18.80;99.90
19781;DHT22;10050;55.492;13.506;2023-07-31T08:09:40;18.80;99.90
19781;DHT22;10050;55.492;13.506;2023-07-31T08:12:07;18.90;99.90
19781;DHT22;10050;55.492;13.506;2023-07-31T08:14:32;19.00;99.90
19781;DHT22;10050;55.492;13.506;2023-07-31T08:16:59;19.10;99.90
19781;DHT22;10050;55.492;13.506;2023-07-31T08:19:24;19.10;99.90
19781;DHT22;10050;55.492;13.506;2023-07-31T08:21:50;19.00;99.90
19781;DHT22;10050;55.492;13.506;2023-07-31T08:24:16;18.80;99.90
19781;DHT22;10050;55.492;13.506;2023-07-31T08:26:41;18.80;99.90
19781;DHT22;10050;55.492;13.506;2023-07-31T08:29:07;18.90;99.90
19781;DHT22;10050;55.492;13.506;2023-07-31T08:31:33;19.00;99.90
19781;DHT22;10050;55.492;13.506;2023-07-31T08:33:58;19.10;99.90
19781;DHT22;10050;55.492;13.506;2023-07-31T08:36:24;19.20;99.90
19781;DHT22;10050;55.492;13.506;2023-07-31T08:38:49;19.10;99.90
19781;DHT22;10050;55.492;13.506;2023-07-31T08:41:15;19.00;99.90
19781;DHT22;10050;55.492;13.506;2023-07-31T08:43:45;18.90;99.90
19781;DHT22;10050;55.492;13.506;2023-07-31T08:46:11;18.60;99.90
19781;DHT22;10050;55.492;13.506;2023-07-31T08:48:37;18.70;99.90
19781;DHT22;10050;55.492;13.506;2023-07-31T08:51:04;18.70;99.90
19781;DHT22;10050;55.492;13.506;2023-07-31T08:53:30;18.80;99.90
19781;DHT22;10050;55.492;13.506;2023-07-31T08:55:56;18.70;99.90
19781;DHT22;10050;55.492;13.506;2023-07-31T08:58:24;18.70;99.90
19781;DHT22;10050;55.492;13.506;2023-07-31T09:00:51;18.60;99.90
19781;DHT22;10050;55.492;13.506;2023-07-31T09:03:18;18.50;99.90
19781;DHT22;10050;55.492;13.506;2023-07-31T09:05:46;18.30;99.90
19781;DHT22;10050;55.492;13.506;2023-07-31T09:08:13;18.20;99.90
19781;DHT22;10050;55.492;13.506;2023-07-31T09:10:43;18.10;99.90
19781;DHT22;10050;55.492;13.506;2023-07-31T09:13:11;17.90;99.90
19781;DHT22;10050;55.492;13.506;2023-07-31T09:15:37;17.80;99.90
19781;DHT22;10050;55.492;13.506;2023-07-31T09:18:06;17.50;99.90
19781;DHT22;10050;55.492;13.506;2023-07-31T09:20:33;17.30;99.90
19781;DHT22;10050;55.492;13.506;2023-07-31T09:23:13;17.10;99.90
19781;DHT22;10050;55.492;13.506;2023-07-31T09:25:41;17.10;99.90
19781;DHT22;10050;55.492;13.506;2023-07-31T09:28:11;17.00;99.90
19781;DHT22;10050;55.492;13.506;2023-07-31T09:30:51;17.20;99.90
19781;DHT22;10050;55.492;13.506;2023-07-31T09:33:18;17.30;99.90
19781;DHT22;10050;55.492;13.506;2023-07-31T09:35:44;17.50;99.90
19781;DHT22;10050;55.492;13.506;2023-07-31T09:38:12;17.90;99.90
19781;DHT22;10050;55.492;13.506;2023-07-31T09:40:39;17.90;99.90
19781;DHT22;10050;55.492;13.506;2023-07-31T09:43:07;18.00;99.90
19781;DHT22;10050;55.492;13.506;2023-07-31T09:45:38;18.10;99.90
19781;DHT22;10050;55.492;13.506;2023-07-31T09:48:11;18.00;99.90
19781;DHT22;10050;55.492;13.506;2023-07-31T09:50:38;17.80;99.90
19781;DHT22;10050;55.492;13.506;2023-07-31T09:53:05;17.50;99.90
19781;DHT22;10050;55.492;13.506;2023-07-31T09:55:31;17.30;99.90
19781;DHT22;10050;55.492;13.506;2023-07-31T09:58:03;17.20;99.90
19781;DHT22;10050;55.492;13.506;2023-07-31T10:00:30;17.10;99.90
19781;DHT22;10050;55.492;13.506;2023-07-31T10:02:58;17.00;99.90
19781;DHT22;10050;55.492;13.506;2023-07-31T10:05:31;17.00;99.90
19781;DHT22;10050;55.492;13.506;2023-07-31T10:07:59;17.10;99.90
19781;DHT22;10050;55.492;13.506;2023-07-31T10:10:26;17.10;99.90
19781;DHT22;10050;55.492;13.506;2023-07-31T10:12:53;17.00;99.90
19781;DHT22;10050;55.492;13.506;2023-07-31T10:15:19;17.10;99.90
19781;DHT22;10050;55.492;13.506;2023-07-31T10:17:47;17.20;99.90
19781;DHT22;10050;55.492;13.506;2023-07-31T10:20:15;17.30;99.90
19781;DHT22;10050;55.492;13.506;2023-07-31T10:22:45;17.40;99.90
19781;DHT22;10050;55.492;13.506;2023-07-31T10:25:15;17.30;99.90
19781;DHT22;10050;55.492;13.506;2023-07-31T10:27:41;17.20;99.90
19781;DHT22;10050;55.492;13.506;2023-07-31T10:30:13;17.10;99.90
19781;DHT22;10050;55.492;13.506;2023-07-31T10:32:41;17.20;99.90
19781;DHT22;10050;55.492;13.506;2023-07-31T10:35:09;17.20;99.90
19781;DHT22;10050;55.492;13.506;2023-07-31T10:37:40;17.30;99.90
19781;DHT22;10050;55.492;13.506;2023-07-31T10:40:17;17.40;99.90
19781;DHT22;10050;55.492;13.506;2023-07-31T10:42:53;17.50;99.90
19781;DHT22;10050;55.492;13.506;2023-07-31T10:45:42;17.60;99.90
19781;DHT22;10050;55.492;13.506;2023-07-31T10:48:15;17.70;99.90
19781;DHT22;10050;55.492;13.506;2023-07-31T10:50:54;17.60;99.90
19781;DHT22;10050;55.492;13.506;2023-07-31T10:53:30;17.60;99.90
19781;DHT22;10050;55.492;13.506;2023-07-31T10:55:59;17.70;99.90
19781;DHT22;10050;55.492;13.506;2023-07-31T10:58:25;17.80;99.90
19781;DHT22;10050;55.492;13.506;2023-07-31T11:00:55;17.80;99.90
19781;DHT22;10050;55.492;13.506;2023-07-31T11:03:25;17.80;99.90
19781;DHT22;10050;55.492;13.506;2023-07-31T11:06:01;17.90;99.90
19781;DHT22;10050;55.492;13.506;2023-07-31T11:08:30;17.90;99.90
19781;DHT22;10050;55.492;13.506;2023-07-31T11:13:29;18.00;99.90
19781;DHT22;10050;55.492;13.506;2023-07-31T11:16:21;18.00;99.90
19781;DHT22;10050;55.492;13.506;2023-07-31T11:18:51;18.00;99.90
19781;DHT22;10050;55.492;13.506;2023-07-31T11:21:21;18.20;99.90
19781;DHT22;10050;55.492;13.506;2023-07-31T11:23:53;18.20;99.90
19781;DHT22;10050;55.492;13.506;2023-07-31T11:26:19;18.10;99.90
19781;DHT22;10050;55.492;13.506;2023-07-31T11:28:48;18.00;99.90
19781;DHT22;10050;55.492;13.506;2023-07-31T11:31:14;18.10;99.90
19781;DHT22;10050;55.492;13.506;2023-07-31T11:33:39;18.20;99.90
19781;DHT22;10050;55.492;13.506;2023-07-31T11:36:05;18.20;99.90
19781;DHT22;10050;55.492;13.506;2023-07-31T11:38:32;18.20;99.90
19781;DHT22;10050;55.492;13.506;2023-07-31T11:41:03;18.20;99.90
19781;DHT22;10050;55.492;13.506;2023-07-31T11:43:29;18.60;99.90
19781;DHT22;10050;55.492;13.506;2023-07-31T11:45:57;19.30;99.90
19781;DHT22;10050;55.492;13.506;2023-07-31T11:48:25;19.70;99.90
19781;DHT22;10050;55.492;13.506;2023-07-31T11:51:03;19.80;99.90
19781;DHT22;10050;55.492;13.506;2023-07-31T11:56:09;19.40;99.90
19781;DHT22;10050;55.492;13.506;2023-07-31T11:58:37;19.10;99.90
19781;DHT22;10050;55.492;13.506;2023-07-31T12:01:04;19.10;99.90
19781;DHT22;10050;55.492;13.506;2023-07-31T12:03:30;19.20;99.90
19781;DHT22;10050;55.492;13.506;2023-07-31T12:05:57;19.40;99.90
19781;DHT22;10050;55.492;13.506;2023-07-31T12:08:24;19.60;99.90
19781;DHT22;10050;55.492;13.506;2023-07-31T12:10:51;19.60;99.90
19781;DHT22;10050;55.492;13.506;2023-07-31T12:13:21;19.60;99.90
19781;DHT22;10050;55.492;13.506;2023-07-31T12:15:48;19.70;99.90
19781;DHT22;10050;55.492;13.506;2023-07-31T12:18:15;19.70;99.90
19781;DHT22;10050;55.492;13.506;2023-07-31T12:20:42;19.70;99.90
19781;DHT22;10050;55.492;13.506;2023-07-31T12:23:19;19.50;99.90
19781;DHT22;10050;55.492;13.506;2023-07-31T12:26:08;19.30;99.90
19781;DHT22;10050;55.492;13.506;2023-07-31T12:31:10;19.30;99.90
19781;DHT22;10050;55.492;13.506;2023-07-31T12:33:38;19.30;99.90
19781;DHT22;10050;55.492;13.506;2023-07-31T12:36:08;19.30;99.90
19781;DHT22;10050;55.492;13.506;2023-07-31T12:38:34;19.10;99.90
19781;DHT22;10050;55.492;13.506;2023-07-31T12:41:00;19.20;99.90
19781;DHT22;10050;55.492;13.506;2023-07-31T12:43:26;19.20;99.90
19781;DHT22;10050;55.492;13.506;2023-07-31T12:45:51;19.40;99.90
19781;DHT22;10050;55.492;13.506;2023-07-31T12:48:17;19.50;99.90
19781;DHT22;10050;55.492;13.506;2023-07-31T12:50:43;19.40;99.90
19781;DHT22;10050;55.492;13.506;2023-07-31T12:53:08;19.50;99.90
19781;DHT22;10050;55.492;13.506;2023-07-31T12:55:34;19.40;99.90
19781;DHT22;10050;55.492;13.506;2023-07-31T12:58:02;19.40;99.90
19781;DHT22;10050;55.492;13.506;2023-07-31T13:00:28;19.30;99.90
19781;DHT22;10050;55.492;13.506;2023-07-31T13:02:53;19.10;99.90
19781;DHT22;10050;55.492;13.506;2023-07-31T13:05:19;19.00;99.90
19781;DHT22;10050;55.492;13.506;2023-07-31T13:07:48;18.90;99.90
19781;DHT22;10050;55.492;13.506;2023-07-31T13:10:17;18.90;99.90
19781;DHT22;10050;55.492;13.506;2023-07-31T13:12:42;18.90;99.90
19781;DHT22;10050;55.492;13.506;2023-07-31T13:15:08;19.40;99.90
19781;DHT22;10050;55.492;13.506;2023-07-31T13:17:35;19.50;99.90
19781;DHT22;10050;55.492;13.506;2023-07-31T13:20:01;19.40;99.90
19781;DHT22;10050;55.492;13.506;2023-07-31T13:22:26;19.20;99.90
19781;DHT22;10050;55.492;13.506;2023-07-31T13:24:52;19.10;99.90
19781;DHT22;10050;55.492;13.506;2023-07-31T13:27:18;19.00;99.90
19781;DHT22;10050;55.492;13.506;2023-07-31T13:29:50;18.90;99.90
19781;DHT22;10050;55.492;13.506;2023-07-31T13:32:17;18.70;99.90
19781;DHT22;10050;55.492;13.506;2023-07-31T13:34:46;18.50;99.90
19781;DHT22;10050;55.492;13.506;2023-07-31T13:37:12;18.50;99.90
19781;DHT22;10050;55.492;13.506;2023-07-31T13:39:38;18.60;99.90
19781;DHT22;10050;55.492;13.506;2023-07-31T13:42:05;18.60;99.90
19781;DHT22;10050;55.492;13.506;2023-07-31T13:44:34;18.70;99.90
19781;DHT22;10050;55.492;13.506;2023-07-31T13:47:00;18.80;99.90
19781;DHT22;10050;55.492;13.506;2023-07-31T13:49:27;18.90;99.90
19781;DHT22;10050;55.492;13.506;2023-07-31T13:51:52;18.90;99.90
19781;DHT22;10050;55.492;13.506;2023-07-31T13:54:22;18.90;99.90
19781;DHT22;10050;55.492;13.506;2023-07-31T13:56:51;18.90;99.90
19781;DHT22;10050;55.492;13.506;2023-07-31T13:59:17;18.90;99.90
19781;DHT22;10050;55.492;13.506;2023-07-31T14:01:43;18.90;99.90
19781;DHT22;10050;55.492;13.506;2023-07-31T14:04:09;18.90;99.90
19781;DHT22;10050;55.492;13.506;2023-07-31T14:06:35;18.80;99.90
19781;DHT22;10050;55.492;13.506;2023-07-31T14:09:01;18.70;99.90
19781;DHT22;10050;55.492;13.506;2023-07-31T14:11:27;18.80;99.90
19781;DHT22;10050;55.492;13.506;2023-07-31T14:13:52;18.80;99.90
19781;DHT22;10050;55.492;13.506;2023-07-31T14:16:18;18.90;99.90
19781;DHT22;10050;55.492;13.506;2023-07-31T14:18:44;18.80;99.90
19781;DHT22;10050;55.492;13.506;2023-07-31T14:21:11;18.80;99.90
19781;DHT22;10050;55.492;13.506;2023-07-31T14:23:37;18.70;99.90
19781;DHT22;10050;55.492;13.506;2023-07-31T14:26:02;18.70;99.90
19781;DHT22;10050;55.492;13.506;2023-07-31T14:28:28;18.60;99.90
19781;DHT22;10050;55.492;13.506;2023-07-31T14:30:53;18.50;99.90
19781;DHT22;10050;55.492;13.506;2023-07-31T14:33:19;18.40;99.90
19781;DHT22;10050;55.492;13.506;2023-07-31T14:35:45;18.30;99.90
19781;DHT22;10050;55.492;13.506;2023-07-31T14:38:10;18.30;99.90
19781;DHT22;10050;55.492;13.506;2023-07-31T14:40:36;18.20;99.90
19781;DHT22;10050;55.492;13.506;2023-07-31T14:43:06;18.20;99.90
19781;DHT22;10050;55.492;13.506;2023-07-31T14:45:32;18.10;99.90
19781;DHT22;10050;55.492;13.506;2023-07-31T14:47:57;18.10;99.90
19781;DHT22;10050;55.492;13.506;2023-07-31T14:50:25;18.20;99.90
19781;DHT22;10050;55.492;13.506;2023-07-31T14:52:51;18.20;99.90
19781;DHT22;10050;55.492;13.506;2023-07-31T14:55:16;18.20;99.90
19781;DHT22;10050;55.492;13.506;2023-07-31T14:57:42;18.30;99.90
19781;DHT22;10050;55.492;13.506;2023-07-31T15:00:08;18.30;99.90
19781;DHT22;10050;55.492;13.506;2023-07-31T15:02:40;18.30;99.90
19781;DHT22;10050;55.492;13.506;2023-07-31T15:05:07;18.40;99.90
19781;DHT22;10050;55.492;13.506;2023-07-31T15:07:33;18.40;99.90
19781;DHT22;10050;55.492;13.506;2023-07-31T15:09:59;18.30;99.90
19781;DHT22;10050;55.492;13.506;2023-07-31T15:12:26;18.40;99.90
19781;DHT22;10050;55.492;13.506;2023-07-31T15:14:52;18.40;99.90
19781;DHT22;10050;55.492;13.506;2023-07-31T15:17:18;18.40;99.90
19781;DHT22;10050;55.492;13.506;2023-07-31T15:19:44;18.60;99.90
19781;DHT22;10050;55.492;13.506;2023-07-31T15:22:09;18.50;99.90
19781;DHT22;10050;55.492;13.506;2023-07-31T15:24:35;18.40;99.90
19781;DHT22;10050;55.492;13.506;2023-07-31T15:27:00;18.40;99.90